Latest Weather Observations for Cooktown

IDQ60801

Issued at 3:02 pm EST Saturday 29 February 2020 (issued every 10 minutes, with the page automatically refreshed every 10 minutes)

About weather observations | Map of weather stations | Latest weather observations for QLD | Other Formats
Station Details ID: 031209 Name: COOKTOWN AIRPORT Lat: -15.45 Lon: 145.19 Height: 4.8 m
Data from the previous 72 hours. | See also: Recent months at Cooktown
Date/Time
EST
Temp
°C
App
Temp
°C
Dew
Point
°C
Rel
Hum
%
Delta-T
°C
Wind Press
QNH
hPa
Press
MSL
hPa
Rain since
9am
mm
Dir  Spd
km/h
Gust
km/h
Spd
kts
Gust
kts
29/03:00pm 32.0 34.8 25.3 67 4.8 ESE 20 30 11 16 1006.3 1006.2 0.0
29/02:30pm 31.6 32.8 24.5 66 5.0 ESE 26 33 14 18 1006.7 1006.6 0.0
29/02:00pm 32.0 34.4 24.3 63 5.4 ESE 19 30 10 16 1007.1 1007.0 0.0
29/01:30pm 31.8 34.1 24.4 65 5.2 ESE 20 28 11 15 1007.2 1007.1 0.0
29/01:00pm 31.8 34.0 23.9 63 5.5 ESE 19 28 10 15 1007.6 1007.5 0.0
29/12:30pm 32.4 34.7 24.4 62 5.6 SE 20 28 11 15 1008.0 1007.9 0.0
29/12:00pm 31.3 32.4 23.1 61 5.6 ESE 22 30 12 16 1008.3 1008.2 0.0
29/11:30am 32.1 34.5 24.2 63 5.5 ESE 19 24 10 13 1008.5 1008.4 0.0
29/11:00am 31.9 34.5 24.0 63 5.5 ESE 17 24 9 13 1008.7 1008.6 0.0
29/10:30am 32.7 35.2 24.5 62 5.8 ESE 19 28 10 15 1008.8 1008.7 0.0
29/10:00am 32.2 35.6 23.4 59 6.1 ESE 11 17 6 9 1008.8 1008.7 0.0
29/09:30am 31.1 36.8 25.0 70 4.3 S 4 9 2 5 1008.8 1008.7 0.0
29/09:00am 29.9 36.6 25.4 77 3.2 CALM 0 0 0 0 1008.9 1008.8 0.0
29/08:30am 28.5 33.4 24.7 80 2.7 WNW 7 9 4 5 1008.9 1008.8 0.0
29/08:00am 27.4 32.6 24.8 86 1.8 WSW 6 9 3 5 1008.8 1008.7 0.0
29/07:30am 26.4 33.0 25.2 93 0.8 CALM 0 0 0 0 1008.5 1008.4 0.0
29/07:00am 25.3 31.4 24.4 95 0.6 CALM 0 0 0 0 1008.3 1008.2 0.0
29/06:30am 24.5 30.1 23.6 95 0.6 CALM 0 0 0 0 1008.0 1007.9 0.0
29/06:00am 24.6 30.3 23.7 95 0.6 CALM 0 0 0 0 1007.6 1007.5 0.0
29/05:30am 24.6 30.3 23.7 95 0.6 CALM 0 0 0 0 1007.2 1007.1 0.0
29/05:00am 24.6 29.1 23.7 95 0.6 SW 6 9 3 5 1007.1 1007.0 0.0
29/04:30am 24.5 29.0 23.6 95 0.6 WNW 6 9 3 5 1006.9 1006.8 0.0
29/04:00am 24.5 30.1 23.6 95 0.6 CALM 0 0 0 0 1006.7 1006.6 0.0
29/03:30am 24.6 29.1 23.7 95 0.6 W 6 7 3 4 1006.8 1006.7 0.0
29/03:00am 24.7 30.4 23.8 95 0.6 CALM 0 7 0 4 1007.0 1006.9 0.0
29/02:30am 24.8 30.6 23.9 95 0.6 CALM 0 0 0 0 1006.8 1006.7 0.0
29/02:00am 24.9 30.7 23.9 94 0.7 CALM 0 0 0 0 1007.0 1006.9 0.0
29/01:30am 25.0 30.8 24.0 94 0.7 CALM 0 0 0 0 1007.2 1007.1 0.0
29/01:00am 25.2 31.0 24.0 93 0.8 CALM 0 0 0 0 1007.2 1007.1 0.0
29/12:30am 25.2 30.8 24.2 94 0.7 W 2 6 1 3 1007.4 1007.3 0.0
29/12:00am 25.3 30.9 24.3 94 0.7 W 2 7 1 4 1007.5 1007.4 0.0
 
Date/Time
EST
Temp
°C
App
Temp
°C
Dew
Point
°C
Rel
Hum
%
Delta-T
°C
Wind Press
QNH
hPa
Press
MSL
hPa
Rain since
9am
mm
Dir  Spd
km/h
Gust
km/h
Spd
kts
Gust
kts
28/11:30pm 25.2 31.2 24.2 94 0.7 CALM 0 0 0 0 1007.6 1007.5 0.0
28/11:00pm 25.1 30.9 23.9 93 0.8 CALM 0 0 0 0 1007.7 1007.6 0.0
28/10:30pm 25.3 29.9 24.1 93 0.8 W 7 9 4 5 1007.9 1007.8 0.0
28/10:00pm 25.6 30.4 24.2 92 1.0 WSW 6 7 3 4 1008.1 1008.0 0.0
28/09:30pm 25.7 31.3 24.3 92 1.0 W 2 7 1 4 1007.7 1007.6 0.0
28/09:00pm 25.8 31.8 24.2 91 1.1 CALM 0 0 0 0 1007.5 1007.4 0.0
28/08:30pm 26.0 30.9 24.4 91 1.1 WNW 6 7 3 4 1007.2 1007.1 0.0
28/08:00pm 26.1 30.5 24.5 91 1.1 WNW 9 11 5 6 1006.7 1006.6 0.0
28/07:30pm 26.2 31.0 24.4 90 1.2 NNW 7 9 4 5 1006.3 1006.2 0.0
28/07:00pm 26.4 32.4 24.2 88 1.5 CALM 0 0 0 0 1006.0 1005.9 0.0
28/06:30pm 26.7 32.4 24.4 87 1.6 SSW 2 6 1 3 1006.1 1006.0 0.0
28/06:00pm 26.6 31.3 24.3 87 1.6 WSW 7 9 4 5 1006.0 1005.9 0.0
28/05:30pm 26.6 30.8 24.1 86 1.7 WNW 9 15 5 8 1005.3 1005.2 0.0
28/05:00pm 26.3 30.1 23.4 84 2.0 WNW 9 13 5 7 1004.8 1004.7 0.0
28/04:30pm 26.9 31.0 24.0 84 2.0 W 9 15 5 8 1005.4 1005.3 0.0
28/04:00pm 28.4 31.8 24.0 77 3.0 SSW 13 24 7 13 1004.9 1004.8 0.0
28/03:30pm 30.9 35.3 25.7 74 3.7 E 13 19 7 10 1004.3 1004.2 0.0
28/03:00pm 33.8 37.3 22.9 53 7.5 ENE 9 13 5 7 1004.2 1004.1 0.0
28/02:30pm 34.8 39.0 24.1 53 7.5 NW 9 13 5 7 1004.4 1004.3 0.0
28/02:00pm 33.7 37.5 24.0 57 6.8 NW 11 15 6 8 1004.9 1004.8 0.0
28/01:30pm 33.7 38.3 25.4 62 5.9 WNW 11 17 6 9 1005.6 1005.5 0.0
28/01:00pm 32.6 36.7 25.2 65 5.2 WNW 13 17 7 9 1006.2 1006.1 0.0
28/12:30pm 32.7 37.4 25.0 64 5.4 WSW 9 13 5 7 1006.5 1006.4 0.0
28/12:00pm 32.8 37.1 24.3 61 6.0 WSW 9 15 5 8 1007.0 1006.9 0.0
28/11:30am 32.4 36.6 24.7 64 5.4 WSW 11 17 6 9 1007.6 1007.5 0.0
28/11:00am 31.0 35.4 24.4 68 4.6 W 9 11 5 6 1008.0 1007.9 0.0
28/10:30am 30.6 34.4 24.7 71 4.1 W 13 19 7 10 1008.4 1008.3 0.0
28/10:00am 29.5 32.8 23.9 72 3.9 WNW 13 19 7 10 1008.5 1008.4 0.0
28/09:30am 28.5 32.2 23.9 76 3.2 WNW 11 17 6 9 1008.6 1008.5 0.0
28/09:00am 27.8 32.1 24.2 81 2.5 NW 9 13 5 7 1008.5 1008.4 63.8
28/08:30am 26.6 31.3 24.3 87 1.6 WNW 7 11 4 6 1008.5 1008.4 63.8
28/08:00am 25.7 29.3 23.7 89 1.4 NW 11 15 6 8 1008.1 1008.0 63.8
28/07:30am 24.8 30.2 23.8 94 0.7 W 2 7 1 4 1008.0 1007.9 63.8
28/07:00am 24.1 29.1 23.2 95 0.6 WSW 2 7 1 4 1007.4 1007.3 63.8
28/06:30am 23.9 29.2 23.0 95 0.6 CALM 0 0 0 0 1006.9 1006.8 63.8
28/06:00am 23.8 27.9 23.0 95 0.5 SW 6 9 3 5 1006.6 1006.5 63.8
28/05:30am 23.8 27.6 22.8 94 0.7 W 7 13 4 7 1006.1 1006.0 63.8
28/05:00am 23.8 26.9 22.8 94 0.7 WNW 11 15 6 8 1006.0 1005.9 63.8
28/04:30am 23.9 27.6 23.2 96 0.5 WNW 9 13 5 7 1006.1 1006.0 63.4
28/04:00am 24.0 27.4 23.3 96 0.5 WNW 11 15 6 8 1006.6 1006.5 63.4
28/03:30am 23.9 29.2 23.0 95 0.6 CALM 0 0 0 0 1007.0 1006.9 63.4
28/03:00am 24.0 28.1 23.0 94 0.7 WSW 6 9 3 5 1007.9 1007.8 63.4
28/02:30am 24.3 28.1 23.4 95 0.6 NW 9 11 5 6 1008.3 1008.2 63.2
28/02:00am 24.3 28.6 23.3 94 0.7 WNW 6 11 3 6 1008.9 1008.8 63.2
28/01:30am 24.5 28.4 23.6 95 0.6 WNW 9 11 5 6 1009.7 1009.6 62.2
28/01:17am 24.6 29.9 23.7 95 0.6 WNW 2 9 1 5 1009.9 1009.8 62.0
28/01:00am 24.5 29.7 23.6 95 0.6 W 2 7 1 4 1010.4 1010.3 61.4
28/12:30am 24.5 29.4 23.6 95 0.6 S 4 9 2 5 1010.7 1010.6 58.6
28/12:00am 24.5 28.8 23.6 95 0.6 WSW 7 13 4 7 1010.4 1010.3 55.8
 
Date/Time
EST
Temp
°C
App
Temp
°C
Dew
Point
°C
Rel
Hum
%
Delta-T
°C
Wind Press
QNH
hPa
Press
MSL
hPa
Rain since
9am
mm
Dir  Spd
km/h
Gust
km/h
Spd
kts
Gust
kts
27/11:40pm 24.7 29.1 23.8 95 0.6 SSW 7 15 4 8 1010.6 1010.5 52.6
27/11:30pm 24.8 29.3 23.9 95 0.6 W 7 11 4 6 1010.8 1010.7 51.0
27/11:00pm 25.5 30.6 24.6 95 0.6 SW 6 19 3 10 1010.3 1010.2 30.4
27/10:46pm 25.3 30.1 24.4 95 0.6 S 7 9 4 5 1010.1 1010.0 21.0
27/10:30pm 25.3 28.9 24.3 94 0.7 S 13 19 7 10 1010.1 1010.0 15.8
27/10:24pm 25.4 29.3 24.2 93 0.8 SW 11 19 6 10 1010.3 1010.2 10.4
27/10:12pm 26.1 30.9 25.1 94 0.7 SSW 9 19 5 10 1009.9 1009.8 5.2
27/10:00pm 26.3 32.6 25.3 94 0.7 SSW 2 7 1 4 1009.6 1009.5 4.4
27/09:30pm 26.2 31.5 25.3 95 0.6 S 7 13 4 7 1009.1 1009.0 4.4
27/09:00pm 26.3 33.0 25.4 95 0.6 CALM 0 0 0 0 1008.6 1008.5 4.4
27/08:30pm 26.4 33.2 25.5 95 0.6 CALM 0 0 0 0 1008.4 1008.3 4.4
27/08:00pm 26.2 32.0 25.2 94 0.7 W 4 7 2 4 1007.9 1007.8 4.4
27/07:30pm 26.2 32.8 25.2 94 0.7 CALM 0 0 0 0 1007.5 1007.4 4.4
27/07:00pm 26.2 31.1 25.2 94 0.7 WNW 9 13 5 7 1007.3 1007.2 4.4
27/06:30pm 26.2 31.5 25.0 93 0.8 WNW 6 7 3 4 1006.7 1006.6 4.2
27/06:14pm 26.2 31.9 25.0 93 0.8 W 4 7 2 4 1006.4 1006.3 3.8
27/06:00pm 26.3 31.6 24.9 92 1.0 SW 6 11 3 6 1006.2 1006.1 3.6
27/05:52pm 26.3 31.2 24.7 91 1.1 S 7 13 4 7 1006.1 1006.0 2.8
27/05:30pm 26.4 29.9 24.8 91 1.1 SSE 15 19 8 10 1005.6 1005.5 2.0
27/05:09pm 26.7 30.4 24.5 88 1.5 S 13 20 7 11 1005.5 1005.4 2.0
27/05:00pm 26.9 29.4 24.5 87 1.7 S 19 30 10 16 1005.5 1005.4 1.8
27/04:49pm 27.8 30.5 24.2 81 2.5 S 17 26 9 14 1005.3 1005.2 1.2
27/04:30pm 30.8 35.6 24.4 68 4.5 SSE 7 15 4 8 1004.6 1004.5 0.0
27/04:00pm 32.5 35.9 24.0 61 5.9 NE 13 20 7 11 1004.5 1004.4 0.0
27/03:30pm 34.1 37.6 24.9 58 6.5 NE 15 22 8 12 1004.6 1004.5 0.0
27/03:00pm 34.3 39.1 26.2 62 5.8 NNE 13 20 7 11 1004.9 1004.8 0.0
27/02:30pm 33.1 37.1 25.1 63 5.7 NNE 13 19 7 10 1005.4 1005.3 0.0
27/02:00pm 33.1 38.2 26.1 66 5.0 E 11 15 6 8 1005.8 1005.7 0.0
27/01:30pm 33.4 37.6 25.4 63 5.7 ENE 13 19 7 10 1006.6 1006.5 0.0
27/01:00pm 32.3 37.1 26.8 73 4.0 E 15 20 8 11 1007.4 1007.3 0.0
27/12:30pm 33.5 38.9 26.0 65 5.4 SE 9 19 5 10 1008.0 1007.9 0.0
27/12:00pm 32.8 37.1 23.7 58 6.3 N 7 13 4 7 1008.5 1008.4 0.0
27/11:30am 32.8 37.8 24.8 62 5.6 NW 7 13 4 7 1008.9 1008.8 0.0
27/11:00am 31.3 35.8 25.2 70 4.3 W 11 17 6 9 1009.3 1009.2 0.0
27/10:30am 31.7 36.0 24.3 65 5.2 WNW 9 13 5 7 1009.5 1009.4 0.0
27/10:00am 31.4 36.4 26.0 73 3.9 WNW 11 15 6 8 1009.7 1009.6 0.0
27/09:30am 30.6 34.8 25.4 74 3.7 WNW 13 17 7 9 1010.0 1009.9 0.0
27/09:00am 29.8 34.6 25.1 76 3.3 NW 9 15 5 8 1010.1 1010.0 0.2
27/08:30am 28.1 33.6 25.3 85 2.0 W 6 9 3 5 1010.1 1010.0 0.2
27/08:00am 27.3 32.6 25.3 89 1.4 WNW 7 11 4 6 1009.9 1009.8 0.2
27/07:30am 26.5 32.8 25.3 93 0.8 WNW 2 7 1 4 1009.5 1009.4 0.2
27/07:00am 25.7 32.0 24.8 95 0.6 CALM 0 0 0 0 1009.0 1008.9 0.2
27/06:30am 24.9 30.7 24.0 95 0.6 CALM 0 0 0 0 1008.6 1008.5 0.2
27/06:00am 25.0 31.0 24.3 96 0.5 CALM 0 0 0 0 1008.4 1008.3 0.2
27/05:30am 25.0 30.9 24.1 95 0.6 CALM 0 0 0 0 1008.0 1007.9 0.2
27/05:00am 25.2 31.3 24.5 96 0.5 CALM 0 0 0 0 1007.9 1007.8 0.2
27/04:30am 25.2 31.3 24.5 96 0.5 CALM 0 0 0 0 1007.8 1007.7 0.2
27/04:00am 25.2 31.2 24.3 95 0.6 CALM 0 0 0 0 1007.3 1007.2 0.2
27/03:30am 25.2 31.2 24.3 95 0.6 CALM 0 0 0 0 1007.4 1007.3 0.2
27/03:00am 25.3 31.4 24.4 95 0.6 CALM 0 0 0 0 1007.7 1007.6 0.2
27/02:30am 25.4 31.5 24.5 95 0.6 CALM 0 0 0 0 1007.7 1007.6 0.2
27/02:00am 25.4 31.5 24.5 95 0.6 CALM 0 0 0 0 1008.0 1007.9 0.2
27/01:30am 25.6 30.7 24.7 95 0.6 NW 6 7 3 4 1008.3 1008.2 0.2
27/01:00am 25.6 31.8 24.6 94 0.7 CALM 0 0 0 0 1008.3 1008.2 0.2
27/12:30am 25.7 32.0 24.7 94 0.7 CALM 0 0 0 0 1008.7 1008.6 0.2
27/12:00am 26.0 32.1 25.0 94 0.7 ENE 2 7 1 4 1009.1 1009.0 0.2
 
Date/Time
EST
Temp
°C
App
Temp
°C
Dew
Point
°C
Rel
Hum
%
Delta-T
°C
Wind Press
QNH
hPa
Press
MSL
hPa
Rain since
9am
mm
Dir  Spd
km/h
Gust
km/h
Spd
kts
Gust
kts
26/11:30pm 26.1 32.6 25.1 94 0.7 CALM 0 0 0 0 1009.2 1009.1 0.2
26/11:00pm 26.3 32.9 25.3 94 0.7 CALM 0 0 0 0 1009.6 1009.5 0.2
26/10:30pm 26.4 33.1 25.4 94 0.7 CALM 0 0 0 0 1009.6 1009.5 0.2
26/10:00pm 26.3 32.7 24.9 92 1.0 CALM 0 0 0 0 1009.4 1009.3 0.2
26/09:30pm 26.7 32.5 25.1 91 1.1 ENE 4 6 2 3 1009.4 1009.3 0.2
26/09:00pm 26.7 33.3 25.3 92 1.0 CALM 0 0 0 0 1008.8 1008.7 0.2
26/08:30pm 27.1 33.4 25.3 90 1.3 ENE 2 6 1 3 1008.4 1008.3 0.2
26/08:00pm 27.3 33.8 25.1 88 1.5 CALM 0 0 0 0 1008.1 1008.0 0.2
26/07:30pm 27.7 33.1 25.1 86 1.8 ENE 6 7 3 4 1007.9 1007.8 0.2
26/07:00pm 28.3 33.1 25.1 83 2.2 E 9 13 5 7 1007.6 1007.5 0.2
26/06:30pm 28.9 32.7 25.3 81 2.5 E 15 20 8 11 1007.3 1007.2 0.2
26/06:00pm 29.4 33.6 25.4 79 2.8 ESE 13 19 7 10 1006.9 1006.8 0.2
26/05:30pm 30.3 33.5 24.9 73 3.8 ESE 17 22 9 12 1006.5 1006.4 0.2
26/05:00pm 30.9 34.7 25.3 72 4.0 E 15 20 8 11 1006.2 1006.1 0.2
26/04:30pm 31.7 35.4 25.8 71 4.2 E 17 20 9 11 1006.2 1006.1 0.2
26/04:00pm 31.7 35.7 25.1 68 4.7 ENE 13 17 7 9 1006.4 1006.3 0.2
26/03:30pm 31.7 36.3 25.3 69 4.5 NE 11 17 6 9 1006.6 1006.5 0.2

Other formats

Comma delimited format used in spreadsheet applications
http://www.bom.gov.au/fwo/IDQ60801/IDQ60801.95283.axf

JavaScript Object Notation format (JSON) in row-major order
http://www.bom.gov.au/fwo/IDQ60801/IDQ60801.95283.json

Data quality

Most of these data are generated automatically and are frequently updated. Quality checks on data are not normally performed. It is possible for incorrect values to appear. Refer to information at About Latest Weather Observations and please check the disclaimer before using these data.